Time,TemperatureF,DewpointF,PressureIn,WindDirection,WindDirectionDegrees,WindSpeedMPH,WindSpeedGustMPH,Humidity,HourlyPrecipIn,Conditions,Clouds,dailyrainin,SolarRadiationWatts/m^2,SoftwareType,DateUTC
2013-05-02 00:00:00,31.0,8.0,-100.00,North,2,3.0,10.0,38,-99.99,,,-99.99,0.000000,,2013-05-02 06:00:00,
2013-05-02 00:42:00,33.0,7.0,-100.00,NNE,26,6.0,10.0,33,-99.99,,,-99.99,0.000000,,2013-05-02 06:42:00,
2013-05-02 00:52:00,31.0,8.0,-100.00,North,2,3.0,10.0,38,-99.99,,,-99.99,0.000000,,2013-05-02 06:52:00,
2013-05-02 02:00:00,32.0,8.0,-100.00,NNE,31,4.0,6.0,36,-99.99,,,-99.99,0.000000,,2013-05-02 08:00:00,
2013-05-02 03:00:00,32.0,9.0,-100.00,North,7,4.0,-999.0,39,-99.99,,,-99.99,0.000000,,2013-05-02 09:00:00,
2013-05-02 03:52:00,32.0,9.0,-100.00,North,7,4.0,-999.0,39,-99.99,,,-99.99,0.000000,,2013-05-02 09:52:00,
2013-05-02 04:00:00,24.0,12.0,-100.00,ENE,62,3.0,-999.0,59,-99.99,,,-99.99,0.000000,,2013-05-02 10:00:00,
2013-05-02 04:53:00,24.0,12.0,-100.00,ENE,62,3.0,-999.0,59,-99.99,,,-99.99,0.000000,,2013-05-02 10:53:00,
2013-05-02 05:00:00,25.0,12.0,-100.00,SE,127,2.0,-999.0,58,-99.99,,,-99.99,0.000000,,2013-05-02 11:00:00,
2013-05-02 05:52:00,25.0,12.0,-100.00,SE,127,2.0,-999.0,58,-99.99,,,-99.99,0.000000,,2013-05-02 11:52:00,
2013-05-02 06:00:00,22.0,11.0,-100.00,ESE,121,3.0,-999.0,64,-99.99,,,-99.99,0.000000,,2013-05-02 12:00:00,
2013-05-02 06:52:00,22.0,11.0,-100.00,ESE,121,3.0,-999.0,64,-99.99,,,-99.99,0.000000,,2013-05-02 12:52:00,
2013-05-02 07:00:00,22.0,11.0,-100.00,SE,139,3.0,-999.0,64,-99.99,,,-99.99,8.280000,,2013-05-02 13:00:00,
2013-05-02 07:52:00,22.0,11.0,-100.00,SE,139,3.0,-999.0,64,-99.99,,,-99.99,8.280000,,2013-05-02 13:52:00,
2013-05-02 08:00:00,34.0,12.0,-100.00,SSE,150,4.0,-999.0,40,-99.99,,,-99.99,154.500000,,2013-05-02 14:00:00,
2013-05-02 08:52:00,34.0,12.0,-100.00,SSE,150,4.0,-999.0,40,-99.99,,,-99.99,154.500000,,2013-05-02 14:52:00,
2013-05-02 09:00:00,40.0,11.0,-100.00,South,190,3.0,-999.0,30,-99.99,,,-99.99,362.399994,,2013-05-02 15:00:00,
2013-05-02 10:00:00,45.0,12.0,-100.00,NW,313,2.0,-999.0,26,-99.99,,,-99.99,562.299988,,2013-05-02 16:00:00,
2013-05-02 10:52:00,45.0,12.0,-100.00,NW,313,2.0,-999.0,26,-99.99,,,-99.99,562.299988,,2013-05-02 16:52:00,
2013-05-02 11:00:00,48.0,9.0,-100.00,North,351,6.0,-999.0,20,-99.99,,,-99.99,736.299988,,2013-05-02 17:00:00,
2013-05-02 11:52:00,48.0,9.0,-100.00,North,351,6.0,-999.0,20,-99.99,,,-99.99,736.299988,,2013-05-02 17:52:00,
2013-05-02 12:00:00,50.0,4.0,-100.00,North,358,7.0,-999.0,15,-99.99,,,-99.99,875.000000,,2013-05-02 18:00:00,
2013-05-02 12:52:00,50.0,4.0,-100.00,North,358,7.0,-999.0,15,-99.99,,,-99.99,875.000000,,2013-05-02 18:52:00,
2013-05-02 13:00:00,53.0,5.0,-100.00,North,10,6.0,-999.0,14,-99.99,,,-99.99,959.000000,,2013-05-02 19:00:00,
2013-05-02 13:52:00,53.0,5.0,-100.00,North,10,6.0,-999.0,14,-99.99,,,-99.99,959.000000,,2013-05-02 19:52:00,
2013-05-02 14:00:00,56.0,6.0,-100.00,North,358,6.0,14.0,13,-99.99,,,-99.99,982.000000,,2013-05-02 20:00:00,
2013-05-02 15:00:00,57.0,8.0,-100.00,North,6,7.0,-999.0,14,-99.99,,,-99.99,946.000000,,2013-05-02 21:00:00,
2013-05-02 15:53:00,57.0,8.0,-100.00,North,6,7.0,-999.0,14,-99.99,,,-99.99,946.000000,,2013-05-02 21:53:00,
2013-05-02 16:00:00,58.0,7.0,-100.00,North,1,7.0,-999.0,13,-99.99,,,-99.99,853.000000,,2013-05-02 22:00:00,
2013-05-02 16:52:00,58.0,7.0,-100.00,North,1,7.0,-999.0,13,-99.99,,,-99.99,853.000000,,2013-05-02 22:52:00,
2013-05-02 17:00:00,60.0,7.0,-100.00,North,353,6.0,-999.0,12,-99.99,,,-99.99,708.299988,,2013-05-02 23:00:00,
2013-05-02 17:52:00,60.0,7.0,-100.00,North,353,6.0,-999.0,12,-99.99,,,-99.99,708.299988,,2013-05-02 23:52:00,
2013-05-02 18:00:00,60.0,8.0,-100.00,North,2,6.0,-999.0,12,-99.99,,,-99.99,512.900024,,2013-05-03 00:00:00,
2013-05-02 18:52:00,60.0,8.0,-100.00,North,2,6.0,-999.0,12,-99.99,,,-99.99,512.900024,,2013-05-03 00:52:00,
2013-05-02 19:00:00,58.0,7.0,-100.00,NNE,12,8.0,-999.0,13,-99.99,,,-99.99,253.600006,,2013-05-03 01:00:00,
2013-05-02 19:52:00,58.0,7.0,-100.00,NNE,12,8.0,-999.0,13,-99.99,,,-99.99,253.600006,,2013-05-03 01:52:00,
2013-05-02 20:00:00,52.0,13.0,-100.00,NNE,23,6.0,-999.0,21,-99.99,,,-99.99,60.810001,,2013-05-03 02:00:00,
2013-05-02 20:52:00,52.0,13.0,-100.00,NNE,23,6.0,-999.0,21,-99.99,,,-99.99,60.810001,,2013-05-03 02:52:00,
2013-05-02 21:00:00,45.0,12.0,-100.00,NE,56,4.0,-999.0,26,-99.99,,,-99.99,5.390000,,2013-05-03 03:00:00,
2013-05-02 21:53:00,45.0,12.0,-100.00,NE,56,4.0,-999.0,26,-99.99,,,-99.99,5.390000,,2013-05-03 03:53:00,
2013-05-02 22:00:00,43.0,14.0,-100.00,East,98,4.0,-999.0,31,-99.99,,,-99.99,0.000000,,2013-05-03 04:00:00,
2013-05-02 22:53:00,43.0,14.0,-100.00,East,98,4.0,-999.0,31,-99.99,,,-99.99,0.000000,,2013-05-03 04:53:00,
2013-05-02 23:00:00,41.0,14.0,-100.00,ESE,111,4.0,-999.0,33,-99.99,,,-99.99,0.000000,,2013-05-03 05:00:00,
2013-05-02 23:52:00,41.0,14.0,-100.00,ESE,111,4.0,-999.0,33,-99.99,,,-99.99,0.000000,,2013-05-03 05:52:00,